sensor_id;sensor_type;location;lat;lon;timestamp;P1;durP1;ratioP1;P2;durP2;ratioP2
67902;SDS011;54708;43.612;1.568;2022-11-15T00:00:06;5.50;;;3.67;;
67902;SDS011;54708;43.612;1.568;2022-11-15T00:02:32;7.80;;;3.47;;
67902;SDS011;54708;43.612;1.568;2022-11-15T00:04:58;7.65;;;2.90;;
67902;SDS011;54708;43.612;1.568;2022-11-15T00:07:23;4.55;;;3.42;;
67902;SDS011;54708;43.612;1.568;2022-11-15T00:09:48;6.25;;;4.32;;
67902;SDS011;54708;43.612;1.568;2022-11-15T00:12:14;6.97;;;3.22;;
67902;SDS011;54708;43.612;1.568;2022-11-15T00:14:39;4.65;;;3.03;;
67902;SDS011;54708;43.612;1.568;2022-11-15T00:17:05;4.68;;;3.08;;
67902;SDS011;54708;43.612;1.568;2022-11-15T00:19:30;4.43;;;3.85;;
67902;SDS011;54708;43.612;1.568;2022-11-15T00:21:56;4.00;;;3.30;;
67902;SDS011;54708;43.612;1.568;2022-11-15T00:24:21;7.28;;;3.95;;
67902;SDS011;54708;43.612;1.568;2022-11-15T00:26:46;5.35;;;3.28;;
67902;SDS011;54708;43.612;1.568;2022-11-15T00:29:12;4.75;;;3.92;;
67902;SDS011;54708;43.612;1.568;2022-11-15T00:31:37;4.15;;;3.17;;
67902;SDS011;54708;43.612;1.568;2022-11-15T00:34:02;4.20;;;3.15;;
67902;SDS011;54708;43.612;1.568;2022-11-15T00:36:28;5.38;;;3.47;;
67902;SDS011;54708;43.612;1.568;2022-11-15T00:38:53;4.90;;;3.55;;
67902;SDS011;54708;43.612;1.568;2022-11-15T00:41:19;5.47;;;4.53;;
67902;SDS011;54708;43.612;1.568;2022-11-15T00:43:44;6.55;;;3.45;;
67902;SDS011;54708;43.612;1.568;2022-11-15T00:46:10;4.05;;;3.50;;
67902;SDS011;54708;43.612;1.568;2022-11-15T00:48:35;5.35;;;4.40;;
67902;SDS011;54708;43.612;1.568;2022-11-15T00:51:01;7.20;;;4.30;;
67902;SDS011;54708;43.612;1.568;2022-11-15T00:53:27;6.63;;;4.45;;
67902;SDS011;54708;43.612;1.568;2022-11-15T00:55:53;7.22;;;4.68;;
67902;SDS011;54708;43.612;1.568;2022-11-15T00:58:18;8.27;;;4.80;;
67902;SDS011;54708;43.612;1.568;2022-11-15T01:00:43;8.32;;;6.13;;
67902;SDS011;54708;43.612;1.568;2022-11-15T01:03:09;7.88;;;5.60;;
67902;SDS011;54708;43.612;1.568;2022-11-15T01:05:36;13.40;;;6.10;;
67902;SDS011;54708;43.612;1.568;2022-11-15T01:08:02;11.43;;;5.88;;
67902;SDS011;54708;43.612;1.568;2022-11-15T01:10:27;7.35;;;6.07;;
67902;SDS011;54708;43.612;1.568;2022-11-15T01:12:53;9.35;;;6.03;;
67902;SDS011;54708;43.612;1.568;2022-11-15T01:15:18;9.50;;;6.22;;
67902;SDS011;54708;43.612;1.568;2022-11-15T01:17:44;7.93;;;5.40;;
67902;SDS011;54708;43.612;1.568;2022-11-15T01:20:09;8.55;;;6.00;;
67902;SDS011;54708;43.612;1.568;2022-11-15T01:22:35;10.93;;;6.35;;
67902;SDS011;54708;43.612;1.568;2022-11-15T01:25:00;7.78;;;5.95;;
67902;SDS011;54708;43.612;1.568;2022-11-15T01:27:26;14.18;;;7.93;;
67902;SDS011;54708;43.612;1.568;2022-11-15T01:29:51;8.85;;;7.05;;
67902;SDS011;54708;43.612;1.568;2022-11-15T01:32:17;10.98;;;6.05;;
67902;SDS011;54708;43.612;1.568;2022-11-15T01:34:42;6.90;;;6.10;;
67902;SDS011;54708;43.612;1.568;2022-11-15T01:37:08;8.50;;;6.30;;
67902;SDS011;54708;43.612;1.568;2022-11-15T01:39:33;9.68;;;6.40;;
67902;SDS011;54708;43.612;1.568;2022-11-15T01:41:59;8.63;;;5.75;;
67902;SDS011;54708;43.612;1.568;2022-11-15T01:46:56;8.57;;;6.40;;
67902;SDS011;54708;43.612;1.568;2022-11-15T01:49:22;10.40;;;5.90;;
67902;SDS011;54708;43.612;1.568;2022-11-15T01:51:49;8.70;;;6.20;;
67902;SDS011;54708;43.612;1.568;2022-11-15T01:54:15;11.95;;;7.20;;
67902;SDS011;54708;43.612;1.568;2022-11-15T01:56:52;9.05;;;6.72;;
67902;SDS011;54708;43.612;1.568;2022-11-15T01:59:18;9.95;;;6.40;;
67902;SDS011;54708;43.612;1.568;2022-11-15T02:01:44;10.20;;;6.55;;
67902;SDS011;54708;43.612;1.568;2022-11-15T02:04:11;8.57;;;6.53;;
67902;SDS011;54708;43.612;1.568;2022-11-15T02:06:39;10.98;;;6.15;;
67902;SDS011;54708;43.612;1.568;2022-11-15T02:09:05;8.77;;;5.97;;
67902;SDS011;54708;43.612;1.568;2022-11-15T02:11:30;9.10;;;5.82;;
67902;SDS011;54708;43.612;1.568;2022-11-15T02:13:56;7.75;;;6.53;;
67902;SDS011;54708;43.612;1.568;2022-11-15T02:19:31;9.65;;;6.13;;
67902;SDS011;54708;43.612;1.568;2022-11-15T02:33:01;8.63;;;5.40;;
67902;SDS011;54708;43.612;1.568;2022-11-15T02:35:35;8.80;;;6.53;;
67902;SDS011;54708;43.612;1.568;2022-11-15T02:38:06;10.35;;;6.68;;
67902;SDS011;54708;43.612;1.568;2022-11-15T02:43:20;10.07;;;6.47;;
67902;SDS011;54708;43.612;1.568;2022-11-15T02:46:12;9.25;;;6.65;;
67902;SDS011;54708;43.612;1.568;2022-11-15T02:49:24;10.35;;;5.38;;
67902;SDS011;54708;43.612;1.568;2022-11-15T02:51:51;9.05;;;5.68;;
67902;SDS011;54708;43.612;1.568;2022-11-15T02:54:21;10.77;;;5.95;;
67902;SDS011;54708;43.612;1.568;2022-11-15T02:56:49;6.97;;;6.00;;
67902;SDS011;54708;43.612;1.568;2022-11-15T03:15:49;9.18;;;5.80;;
67902;SDS011;54708;43.612;1.568;2022-11-15T03:18:23;10.25;;;5.75;;
67902;SDS011;54708;43.612;1.568;2022-11-15T03:20:55;8.27;;;6.00;;
67902;SDS011;54708;43.612;1.568;2022-11-15T03:23:20;8.63;;;6.25;;
67902;SDS011;54708;43.612;1.568;2022-11-15T03:25:48;8.75;;;4.20;;
67902;SDS011;54708;43.612;1.568;2022-11-15T03:28:20;8.35;;;5.13;;
67902;SDS011;54708;43.612;1.568;2022-11-15T03:30:48;9.45;;;5.18;;
67902;SDS011;54708;43.612;1.568;2022-11-15T03:33:14;10.15;;;5.90;;
67902;SDS011;54708;43.612;1.568;2022-11-15T03:35:42;6.43;;;4.90;;
67902;SDS011;54708;43.612;1.568;2022-11-15T03:38:15;7.70;;;5.10;;
67902;SDS011;54708;43.612;1.568;2022-11-15T03:40:49;8.95;;;5.80;;
67902;SDS011;54708;43.612;1.568;2022-11-15T03:46:16;8.98;;;5.15;;
67902;SDS011;54708;43.612;1.568;2022-11-15T03:48:49;8.52;;;4.85;;
67902;SDS011;54708;43.612;1.568;2022-11-15T03:51:16;7.70;;;5.32;;
67902;SDS011;54708;43.612;1.568;2022-11-15T03:53:42;10.85;;;5.43;;
67902;SDS011;54708;43.612;1.568;2022-11-15T03:56:07;7.78;;;5.47;;
67902;SDS011;54708;43.612;1.568;2022-11-15T03:58:33;12.73;;;4.85;;
67902;SDS011;54708;43.612;1.568;2022-11-15T04:00:58;7.38;;;5.40;;
67902;SDS011;54708;43.612;1.568;2022-11-15T04:03:24;10.95;;;5.05;;
67902;SDS011;54708;43.612;1.568;2022-11-15T04:05:50;8.82;;;5.03;;
67902;SDS011;54708;43.612;1.568;2022-11-15T04:08:15;7.38;;;4.85;;
67902;SDS011;54708;43.612;1.568;2022-11-15T04:10:40;7.25;;;5.00;;
67902;SDS011;54708;43.612;1.568;2022-11-15T04:13:06;8.85;;;5.63;;
67902;SDS011;54708;43.612;1.568;2022-11-15T04:15:31;11.65;;;5.88;;
67902;SDS011;54708;43.612;1.568;2022-11-15T04:17:57;14.98;;;6.30;;
67902;SDS011;54708;43.612;1.568;2022-11-15T04:20:26;11.32;;;5.82;;
67902;SDS011;54708;43.612;1.568;2022-11-15T04:23:19;7.93;;;5.13;;
67902;SDS011;54708;43.612;1.568;2022-11-15T04:26:05;12.68;;;7.07;;
67902;SDS011;54708;43.612;1.568;2022-11-15T04:28:35;9.27;;;5.35;;
67902;SDS011;54708;43.612;1.568;2022-11-15T04:31:00;9.95;;;5.20;;
67902;SDS011;54708;43.612;1.568;2022-11-15T04:33:26;6.75;;;5.32;;
67902;SDS011;54708;43.612;1.568;2022-11-15T04:35:51;7.32;;;5.18;;
67902;SDS011;54708;43.612;1.568;2022-11-15T04:38:36;6.45;;;5.43;;
67902;SDS011;54708;43.612;1.568;2022-11-15T04:41:01;11.93;;;6.00;;
67902;SDS011;54708;43.612;1.568;2022-11-15T04:43:27;9.63;;;5.15;;
67902;SDS011;54708;43.612;1.568;2022-11-15T04:45:53;10.60;;;5.50;;
67902;SDS011;54708;43.612;1.568;2022-11-15T04:48:18;14.35;;;6.40;;
67902;SDS011;54708;43.612;1.568;2022-11-15T04:50:43;11.95;;;5.68;;
67902;SDS011;54708;43.612;1.568;2022-11-15T04:53:09;12.63;;;5.53;;
67902;SDS011;54708;43.612;1.568;2022-11-15T04:55:34;8.48;;;5.25;;
67902;SDS011;54708;43.612;1.568;2022-11-15T04:58:00;12.27;;;6.07;;
67902;SDS011;54708;43.612;1.568;2022-11-15T05:00:26;10.68;;;6.55;;
67902;SDS011;54708;43.612;1.568;2022-11-15T05:02:52;11.90;;;5.90;;
67902;SDS011;54708;43.612;1.568;2022-11-15T05:05:36;11.68;;;5.65;;
67902;SDS011;54708;43.612;1.568;2022-11-15T05:08:02;12.23;;;5.43;;
67902;SDS011;54708;43.612;1.568;2022-11-15T05:10:27;10.00;;;5.80;;
67902;SDS011;54708;43.612;1.568;2022-11-15T05:12:53;11.73;;;6.32;;
67902;SDS011;54708;43.612;1.568;2022-11-15T05:15:18;13.15;;;6.65;;
67902;SDS011;54708;43.612;1.568;2022-11-15T05:17:43;10.32;;;6.30;;
67902;SDS011;54708;43.612;1.568;2022-11-15T05:20:09;10.73;;;6.70;;
67902;SDS011;54708;43.612;1.568;2022-11-15T05:22:35;16.13;;;6.82;;
67902;SDS011;54708;43.612;1.568;2022-11-15T05:25:00;11.10;;;6.80;;
67902;SDS011;54708;43.612;1.568;2022-11-15T05:27:26;10.75;;;7.68;;
67902;SDS011;54708;43.612;1.568;2022-11-15T05:29:51;13.00;;;7.50;;
67902;SDS011;54708;43.612;1.568;2022-11-15T05:32:16;12.52;;;6.55;;
67902;SDS011;54708;43.612;1.568;2022-11-15T05:34:43;11.77;;;6.90;;
67902;SDS011;54708;43.612;1.568;2022-11-15T05:37:08;13.23;;;6.57;;
67902;SDS011;54708;43.612;1.568;2022-11-15T05:39:34;11.38;;;7.32;;
67902;SDS011;54708;43.612;1.568;2022-11-15T05:42:01;14.27;;;7.78;;
67902;SDS011;54708;43.612;1.568;2022-11-15T05:44:30;16.33;;;8.63;;
67902;SDS011;54708;43.612;1.568;2022-11-15T05:46:56;15.63;;;8.60;;
67902;SDS011;54708;43.612;1.568;2022-11-15T05:49:23;11.07;;;8.77;;
67902;SDS011;54708;43.612;1.568;2022-11-15T05:51:50;13.40;;;9.15;;
67902;SDS011;54708;43.612;1.568;2022-11-15T05:54:16;14.10;;;8.02;;
67902;SDS011;54708;43.612;1.568;2022-11-15T05:56:42;12.48;;;8.30;;
67902;SDS011;54708;43.612;1.568;2022-11-15T05:59:08;14.55;;;8.43;;
67902;SDS011;54708;43.612;1.568;2022-11-15T06:01:34;12.43;;;8.40;;
67902;SDS011;54708;43.612;1.568;2022-11-15T06:03:59;12.73;;;8.38;;
67902;SDS011;54708;43.612;1.568;2022-11-15T06:06:26;16.85;;;9.43;;
67902;SDS011;54708;43.612;1.568;2022-11-15T06:08:52;19.95;;;9.82;;
67902;SDS011;54708;43.612;1.568;2022-11-15T06:11:18;15.57;;;8.68;;
67902;SDS011;54708;43.612;1.568;2022-11-15T06:13:43;16.92;;;10.10;;
67902;SDS011;54708;43.612;1.568;2022-11-15T06:16:08;17.20;;;8.88;;
67902;SDS011;54708;43.612;1.568;2022-11-15T06:18:35;14.30;;;8.60;;
67902;SDS011;54708;43.612;1.568;2022-11-15T06:21:01;14.50;;;9.10;;
67902;SDS011;54708;43.612;1.568;2022-11-15T06:23:27;14.93;;;9.15;;
67902;SDS011;54708;43.612;1.568;2022-11-15T06:25:53;17.83;;;9.38;;
67902;SDS011;54708;43.612;1.568;2022-11-15T06:28:18;14.63;;;9.13;;
67902;SDS011;54708;43.612;1.568;2022-11-15T06:30:43;16.40;;;11.18;;
67902;SDS011;54708;43.612;1.568;2022-11-15T06:33:09;13.63;;;9.27;;
67902;SDS011;54708;43.612;1.568;2022-11-15T06:35:34;16.90;;;9.02;;
67902;SDS011;54708;43.612;1.568;2022-11-15T06:38:04;21.95;;;9.90;;
67902;SDS011;54708;43.612;1.568;2022-11-15T06:40:32;19.45;;;9.60;;
67902;SDS011;54708;43.612;1.568;2022-11-15T06:42:59;17.88;;;9.45;;
67902;SDS011;54708;43.612;1.568;2022-11-15T06:45:25;13.75;;;9.60;;
67902;SDS011;54708;43.612;1.568;2022-11-15T06:47:50;20.90;;;10.32;;
67902;SDS011;54708;43.612;1.568;2022-11-15T06:50:16;16.00;;;9.95;;
67902;SDS011;54708;43.612;1.568;2022-11-15T06:52:42;20.52;;;10.25;;
67902;SDS011;54708;43.612;1.568;2022-11-15T06:55:07;16.38;;;9.55;;
67902;SDS011;54708;43.612;1.568;2022-11-15T06:57:33;30.67;;;10.13;;
67902;SDS011;54708;43.612;1.568;2022-11-15T06:59:59;18.17;;;11.15;;
67902;SDS011;54708;43.612;1.568;2022-11-15T07:02:24;19.73;;;9.55;;
67902;SDS011;54708;43.612;1.568;2022-11-15T07:04:50;16.40;;;10.05;;
67902;SDS011;54708;43.612;1.568;2022-11-15T07:07:15;14.02;;;9.10;;
67902;SDS011;54708;43.612;1.568;2022-11-15T07:09:40;25.13;;;9.38;;
67902;SDS011;54708;43.612;1.568;2022-11-15T07:12:06;27.58;;;11.25;;
67902;SDS011;54708;43.612;1.568;2022-11-15T07:14:31;18.42;;;10.38;;
67902;SDS011;54708;43.612;1.568;2022-11-15T07:16:57;17.55;;;10.63;;
67902;SDS011;54708;43.612;1.568;2022-11-15T07:19:22;16.35;;;9.25;;
67902;SDS011;54708;43.612;1.568;2022-11-15T07:21:47;23.33;;;10.50;;
67902;SDS011;54708;43.612;1.568;2022-11-15T07:24:13;16.05;;;8.93;;
67902;SDS011;54708;43.612;1.568;2022-11-15T07:26:38;20.52;;;9.48;;
67902;SDS011;54708;43.612;1.568;2022-11-15T07:29:03;17.10;;;9.35;;
67902;SDS011;54708;43.612;1.568;2022-11-15T07:31:29;18.83;;;10.20;;
67902;SDS011;54708;43.612;1.568;2022-11-15T07:33:54;18.98;;;8.70;;
67902;SDS011;54708;43.612;1.568;2022-11-15T07:36:20;20.35;;;9.02;;
67902;SDS011;54708;43.612;1.568;2022-11-15T07:38:45;18.08;;;8.50;;
67902;SDS011;54708;43.612;1.568;2022-11-15T07:41:10;18.88;;;9.13;;
67902;SDS011;54708;43.612;1.568;2022-11-15T07:43:36;14.68;;;8.13;;
67902;SDS011;54708;43.612;1.568;2022-11-15T07:46:08;21.13;;;9.50;;
67902;SDS011;54708;43.612;1.568;2022-11-15T07:48:34;15.32;;;8.32;;
67902;SDS011;54708;43.612;1.568;2022-11-15T07:51:00;19.30;;;10.32;;
67902;SDS011;54708;43.612;1.568;2022-11-15T07:53:26;12.38;;;8.25;;
67902;SDS011;54708;43.612;1.568;2022-11-15T07:55:51;13.80;;;8.73;;
67902;SDS011;54708;43.612;1.568;2022-11-15T07:58:18;13.73;;;8.95;;
67902;SDS011;54708;43.612;1.568;2022-11-15T08:00:44;15.50;;;9.02;;
67902;SDS011;54708;43.612;1.568;2022-11-15T08:03:10;16.35;;;9.07;;
67902;SDS011;54708;43.612;1.568;2022-11-15T08:05:38;12.07;;;7.82;;
67902;SDS011;54708;43.612;1.568;2022-11-15T08:08:04;12.00;;;9.02;;
67902;SDS011;54708;43.612;1.568;2022-11-15T08:10:30;21.38;;;8.77;;
67902;SDS011;54708;43.612;1.568;2022-11-15T08:13:14;20.00;;;9.90;;
67902;SDS011;54708;43.612;1.568;2022-11-15T08:15:40;11.93;;;8.10;;
67902;SDS011;54708;43.612;1.568;2022-11-15T08:18:08;14.30;;;8.10;;
67902;SDS011;54708;43.612;1.568;2022-11-15T08:20:37;18.75;;;8.10;;
67902;SDS011;54708;43.612;1.568;2022-11-15T08:23:03;17.85;;;8.85;;
67902;SDS011;54708;43.612;1.568;2022-11-15T08:25:30;15.00;;;8.52;;
67902;SDS011;54708;43.612;1.568;2022-11-15T08:27:58;16.67;;;7.75;;
67902;SDS011;54708;43.612;1.568;2022-11-15T08:30:25;16.08;;;9.20;;
67902;SDS011;54708;43.612;1.568;2022-11-15T08:32:51;13.88;;;6.88;;
67902;SDS011;54708;43.612;1.568;2022-11-15T08:35:17;15.25;;;7.68;;
67902;SDS011;54708;43.612;1.568;2022-11-15T08:37:43;23.13;;;8.07;;
67902;SDS011;54708;43.612;1.568;2022-11-15T08:40:09;12.75;;;6.88;;
67902;SDS011;54708;43.612;1.568;2022-11-15T08:42:35;14.80;;;8.40;;
67902;SDS011;54708;43.612;1.568;2022-11-15T08:45:00;16.02;;;7.32;;
67902;SDS011;54708;43.612;1.568;2022-11-15T08:47:26;16.45;;;7.38;;
67902;SDS011;54708;43.612;1.568;2022-11-15T08:49:51;12.27;;;7.80;;
67902;SDS011;54708;43.612;1.568;2022-11-15T08:52:17;11.90;;;7.35;;
67902;SDS011;54708;43.612;1.568;2022-11-15T08:54:43;14.57;;;8.43;;
67902;SDS011;54708;43.612;1.568;2022-11-15T08:57:08;12.65;;;6.88;;
67902;SDS011;54708;43.612;1.568;2022-11-15T08:59:34;14.65;;;7.38;;
67902;SDS011;54708;43.612;1.568;2022-11-15T09:02:00;13.93;;;6.85;;
67902;SDS011;54708;43.612;1.568;2022-11-15T09:04:26;13.75;;;7.25;;
67902;SDS011;54708;43.612;1.568;2022-11-15T09:06:51;12.93;;;6.68;;
67902;SDS011;54708;43.612;1.568;2022-11-15T09:09:17;18.25;;;6.75;;
67902;SDS011;54708;43.612;1.568;2022-11-15T09:11:42;11.55;;;6.80;;
67902;SDS011;54708;43.612;1.568;2022-11-15T09:14:09;11.32;;;6.97;;
67902;SDS011;54708;43.612;1.568;2022-11-15T09:16:36;18.30;;;6.80;;
67902;SDS011;54708;43.612;1.568;2022-11-15T09:19:01;16.13;;;7.50;;
67902;SDS011;54708;43.612;1.568;2022-11-15T09:21:28;20.75;;;9.38;;
67902;SDS011;54708;43.612;1.568;2022-11-15T09:23:53;16.45;;;7.93;;
67902;SDS011;54708;43.612;1.568;2022-11-15T09:26:19;17.50;;;8.55;;
67902;SDS011;54708;43.612;1.568;2022-11-15T09:28:44;16.10;;;7.40;;
67902;SDS011;54708;43.612;1.568;2022-11-15T09:31:10;11.93;;;7.63;;
67902;SDS011;54708;43.612;1.568;2022-11-15T09:33:35;13.52;;;7.93;;
67902;SDS011;54708;43.612;1.568;2022-11-15T09:36:05;17.42;;;7.40;;
67902;SDS011;54708;43.612;1.568;2022-11-15T09:38:32;13.82;;;7.47;;
67902;SDS011;54708;43.612;1.568;2022-11-15T09:46:48;13.45;;;6.88;;
67902;SDS011;54708;43.612;1.568;2022-11-15T09:49:36;9.88;;;6.75;;
67902;SDS011;54708;43.612;1.568;2022-11-15T09:52:02;10.10;;;5.68;;
67902;SDS011;54708;43.612;1.568;2022-11-15T09:54:41;12.95;;;5.95;;
67902;SDS011;54708;43.612;1.568;2022-11-15T10:04:41;17.83;;;6.90;;
67902;SDS011;54708;43.612;1.568;2022-11-15T10:09:48;13.77;;;5.97;;
67902;SDS011;54708;43.612;1.568;2022-11-15T10:12:16;12.95;;;6.38;;
67902;SDS011;54708;43.612;1.568;2022-11-15T10:14:42;10.93;;;6.28;;
67902;SDS011;54708;43.612;1.568;2022-11-15T10:23:28;13.38;;;6.72;;
67902;SDS011;54708;43.612;1.568;2022-11-15T10:25:32;10.82;;;6.97;;
67902;SDS011;54708;43.612;1.568;2022-11-15T10:28:01;6.97;;;5.88;;
67902;SDS011;54708;43.612;1.568;2022-11-15T10:30:51;12.07;;;6.07;;
67902;SDS011;54708;43.612;1.568;2022-11-15T10:33:23;16.08;;;7.80;;
67902;SDS011;54708;43.612;1.568;2022-11-15T10:41:15;9.15;;;5.45;;
67902;SDS011;54708;43.612;1.568;2022-11-15T10:43:42;11.38;;;5.85;;
67902;SDS011;54708;43.612;1.568;2022-11-15T10:46:29;12.30;;;6.75;;
67902;SDS011;54708;43.612;1.568;2022-11-15T10:48:54;11.63;;;7.05;;
67902;SDS011;54708;43.612;1.568;2022-11-15T10:52:04;12.23;;;6.40;;
67902;SDS011;54708;43.612;1.568;2022-11-15T10:54:43;8.52;;;5.55;;
67902;SDS011;54708;43.612;1.568;2022-11-15T10:57:16;13.73;;;6.47;;
67902;SDS011;54708;43.612;1.568;2022-11-15T10:59:53;10.25;;;5.85;;
67902;SDS011;54708;43.612;1.568;2022-11-15T11:02:30;11.57;;;5.90;;
67902;SDS011;54708;43.612;1.568;2022-11-15T11:05:01;12.88;;;7.65;;
67902;SDS011;54708;43.612;1.568;2022-11-15T11:07:32;10.20;;;5.80;;
67902;SDS011;54708;43.612;1.568;2022-11-15T11:10:03;10.02;;;6.25;;
67902;SDS011;54708;43.612;1.568;2022-11-15T11:12:32;7.80;;;6.78;;
67902;SDS011;54708;43.612;1.568;2022-11-15T11:14:59;12.30;;;6.07;;
67902;SDS011;54708;43.612;1.568;2022-11-15T11:26:00;7.65;;;5.72;;
67902;SDS011;54708;43.612;1.568;2022-11-15T11:34:46;8.23;;;6.30;;
67902;SDS011;54708;43.612;1.568;2022-11-15T11:37:35;8.63;;;5.75;;
67902;SDS011;54708;43.612;1.568;2022-11-15T11:45:31;13.02;;;6.38;;
67902;SDS011;54708;43.612;1.568;2022-11-15T11:50:36;15.80;;;6.40;;
67902;SDS011;54708;43.612;1.568;2022-11-15T11:53:09;13.23;;;6.82;;
67902;SDS011;54708;43.612;1.568;2022-11-15T11:55:39;14.13;;;6.65;;
67902;SDS011;54708;43.612;1.568;2022-11-15T12:00:54;10.48;;;5.65;;
67902;SDS011;54708;43.612;1.568;2022-11-15T12:06:05;14.57;;;6.03;;
67902;SDS011;54708;43.612;1.568;2022-11-15T12:09:00;17.20;;;7.72;;
67902;SDS011;54708;43.612;1.568;2022-11-15T12:14:32;11.05;;;6.35;;
67902;SDS011;54708;43.612;1.568;2022-11-15T12:17:01;9.90;;;6.22;;
67902;SDS011;54708;43.612;1.568;2022-11-15T12:19:26;10.75;;;5.78;;
67902;SDS011;54708;43.612;1.568;2022-11-15T12:22:13;10.38;;;5.85;;
67902;SDS011;54708;43.612;1.568;2022-11-15T12:24:48;13.88;;;6.47;;
67902;SDS011;54708;43.612;1.568;2022-11-15T12:27:20;10.13;;;5.22;;
67902;SDS011;54708;43.612;1.568;2022-11-15T12:30:03;15.18;;;6.47;;
67902;SDS011;54708;43.612;1.568;2022-11-15T12:32:34;15.63;;;5.60;;
67902;SDS011;54708;43.612;1.568;2022-11-15T12:35:03;13.05;;;7.15;;
67902;SDS011;54708;43.612;1.568;2022-11-15T12:45:36;11.90;;;5.88;;
67902;SDS011;54708;43.612;1.568;2022-11-15T13:01:10;8.88;;;6.30;;
67902;SDS011;54708;43.612;1.568;2022-11-15T13:06:47;11.98;;;5.85;;
67902;SDS011;54708;43.612;1.568;2022-11-15T13:11:57;9.13;;;6.00;;
67902;SDS011;54708;43.612;1.568;2022-11-15T13:19:45;13.43;;;7.20;;
67902;SDS011;54708;43.612;1.568;2022-11-15T13:22:12;11.48;;;6.82;;
67902;SDS011;54708;43.612;1.568;2022-11-15T13:24:56;14.65;;;7.22;;
67902;SDS011;54708;43.612;1.568;2022-11-15T13:27:22;17.63;;;7.45;;
67902;SDS011;54708;43.612;1.568;2022-11-15T13:29:47;10.52;;;6.57;;
67902;SDS011;54708;43.612;1.568;2022-11-15T13:32:13;13.70;;;6.25;;
67902;SDS011;54708;43.612;1.568;2022-11-15T13:34:47;11.93;;;6.60;;
67902;SDS011;54708;43.612;1.568;2022-11-15T13:39:45;13.60;;;7.07;;
67902;SDS011;54708;43.612;1.568;2022-11-15T13:42:15;10.07;;;5.93;;
67902;SDS011;54708;43.612;1.568;2022-11-15T13:44:55;14.48;;;7.60;;
67902;SDS011;54708;43.612;1.568;2022-11-15T13:47:27;13.27;;;6.80;;
67902;SDS011;54708;43.612;1.568;2022-11-15T13:49:56;15.00;;;7.35;;
67902;SDS011;54708;43.612;1.568;2022-11-15T13:52:22;9.85;;;6.35;;
67902;SDS011;54708;43.612;1.568;2022-11-15T13:57:33;11.40;;;6.85;;
67902;SDS011;54708;43.612;1.568;2022-11-15T14:00:05;12.60;;;6.80;;
67902;SDS011;54708;43.612;1.568;2022-11-15T14:02:49;8.68;;;6.53;;
67902;SDS011;54708;43.612;1.568;2022-11-15T14:05:18;11.32;;;7.63;;
67902;SDS011;54708;43.612;1.568;2022-11-15T14:07:53;10.50;;;6.35;;
67902;SDS011;54708;43.612;1.568;2022-11-15T14:10:30;14.57;;;6.93;;
67902;SDS011;54708;43.612;1.568;2022-11-15T14:13:00;14.70;;;5.90;;
67902;SDS011;54708;43.612;1.568;2022-11-15T14:17:58;9.82;;;5.80;;
67902;SDS011;54708;43.612;1.568;2022-11-15T14:25:23;10.88;;;6.53;;
67902;SDS011;54708;43.612;1.568;2022-11-15T14:30:34;8.70;;;6.25;;
67902;SDS011;54708;43.612;1.568;2022-11-15T14:32:59;9.55;;;6.35;;
67902;SDS011;54708;43.612;1.568;2022-11-15T14:35:25;11.15;;;6.32;;
67902;SDS011;54708;43.612;1.568;2022-11-15T14:37:50;14.02;;;6.20;;
67902;SDS011;54708;43.612;1.568;2022-11-15T14:40:17;12.48;;;6.72;;
67902;SDS011;54708;43.612;1.568;2022-11-15T14:42:46;12.18;;;6.07;;
67902;SDS011;54708;43.612;1.568;2022-11-15T14:45:18;15.55;;;7.20;;
67902;SDS011;54708;43.612;1.568;2022-11-15T14:47:45;8.75;;;6.78;;
67902;SDS011;54708;43.612;1.568;2022-11-15T14:50:11;10.20;;;6.28;;
67902;SDS011;54708;43.612;1.568;2022-11-15T14:52:38;11.02;;;6.25;;
67902;SDS011;54708;43.612;1.568;2022-11-15T14:55:04;11.90;;;6.22;;
67902;SDS011;54708;43.612;1.568;2022-11-15T14:57:40;10.70;;;6.07;;
67902;SDS011;54708;43.612;1.568;2022-11-15T15:00:06;8.80;;;7.00;;
67902;SDS011;54708;43.612;1.568;2022-11-15T15:02:33;11.65;;;6.65;;
67902;SDS011;54708;43.612;1.568;2022-11-15T15:04:58;8.88;;;6.18;;
67902;SDS011;54708;43.612;1.568;2022-11-15T15:07:26;9.45;;;6.38;;
67902;SDS011;54708;43.612;1.568;2022-11-15T15:09:51;13.32;;;6.57;;
67902;SDS011;54708;43.612;1.568;2022-11-15T15:12:17;9.98;;;7.47;;
67902;SDS011;54708;43.612;1.568;2022-11-15T15:14:47;14.77;;;7.22;;
67902;SDS011;54708;43.612;1.568;2022-11-15T15:17:13;9.27;;;6.18;;
67902;SDS011;54708;43.612;1.568;2022-11-15T15:19:39;14.60;;;6.70;;
67902;SDS011;54708;43.612;1.568;2022-11-15T15:22:05;11.27;;;6.20;;
67902;SDS011;54708;43.612;1.568;2022-11-15T15:24:31;10.65;;;6.47;;
67902;SDS011;54708;43.612;1.568;2022-11-15T15:26:56;15.80;;;6.75;;
67902;SDS011;54708;43.612;1.568;2022-11-15T15:29:22;15.75;;;6.97;;
67902;SDS011;54708;43.612;1.568;2022-11-15T15:31:47;11.68;;;6.88;;
67902;SDS011;54708;43.612;1.568;2022-11-15T15:34:12;14.10;;;6.38;;
67902;SDS011;54708;43.612;1.568;2022-11-15T15:36:38;10.73;;;6.72;;
67902;SDS011;54708;43.612;1.568;2022-11-15T15:39:03;9.77;;;6.90;;
67902;SDS011;54708;43.612;1.568;2022-11-15T15:41:28;12.60;;;6.95;;
67902;SDS011;54708;43.612;1.568;2022-11-15T15:43:54;10.55;;;6.55;;
67902;SDS011;54708;43.612;1.568;2022-11-15T15:46:20;11.00;;;6.70;;
67902;SDS011;54708;43.612;1.568;2022-11-15T15:48:46;12.40;;;6.93;;
67902;SDS011;54708;43.612;1.568;2022-11-15T15:51:11;10.10;;;5.93;;
67902;SDS011;54708;43.612;1.568;2022-11-15T15:53:37;8.93;;;6.35;;
67902;SDS011;54708;43.612;1.568;2022-11-15T15:56:03;13.20;;;7.70;;
67902;SDS011;54708;43.612;1.568;2022-11-15T15:58:29;10.13;;;7.32;;
67902;SDS011;54708;43.612;1.568;2022-11-15T16:00:54;11.68;;;6.70;;
67902;SDS011;54708;43.612;1.568;2022-11-15T16:03:19;12.27;;;6.95;;
67902;SDS011;54708;43.612;1.568;2022-11-15T16:05:45;12.80;;;6.35;;
67902;SDS011;54708;43.612;1.568;2022-11-15T16:08:23;10.35;;;6.63;;
67902;SDS011;54708;43.612;1.568;2022-11-15T16:10:50;11.02;;;6.05;;
67902;SDS011;54708;43.612;1.568;2022-11-15T16:13:15;11.77;;;6.65;;
67902;SDS011;54708;43.612;1.568;2022-11-15T16:15:41;10.55;;;7.80;;
67902;SDS011;54708;43.612;1.568;2022-11-15T16:18:08;13.80;;;6.90;;
67902;SDS011;54708;43.612;1.568;2022-11-15T16:20:40;12.73;;;7.50;;
67902;SDS011;54708;43.612;1.568;2022-11-15T16:23:09;10.75;;;6.65;;
67902;SDS011;54708;43.612;1.568;2022-11-15T16:25:41;14.70;;;6.65;;
67902;SDS011;54708;43.612;1.568;2022-11-15T16:28:14;13.00;;;7.67;;
67902;SDS011;54708;43.612;1.568;2022-11-15T16:30:44;12.50;;;6.60;;
67902;SDS011;54708;43.612;1.568;2022-11-15T16:33:10;16.85;;;7.45;;
67902;SDS011;54708;43.612;1.568;2022-11-15T16:35:35;12.18;;;6.43;;
67902;SDS011;54708;43.612;1.568;2022-11-15T16:38:01;12.40;;;7.57;;
67902;SDS011;54708;43.612;1.568;2022-11-15T16:40:27;11.85;;;7.03;;
67902;SDS011;54708;43.612;1.568;2022-11-15T16:42:55;11.65;;;5.80;;
67902;SDS011;54708;43.612;1.568;2022-11-15T16:45:21;12.90;;;7.15;;
67902;SDS011;54708;43.612;1.568;2022-11-15T16:47:46;8.13;;;5.85;;
67902;SDS011;54708;43.612;1.568;2022-11-15T16:50:19;9.25;;;6.10;;
67902;SDS011;54708;43.612;1.568;2022-11-15T16:52:49;11.85;;;7.05;;
67902;SDS011;54708;43.612;1.568;2022-11-15T16:55:15;12.38;;;7.00;;
67902;SDS011;54708;43.612;1.568;2022-11-15T16:57:40;10.32;;;6.20;;
67902;SDS011;54708;43.612;1.568;2022-11-15T17:00:07;13.18;;;7.32;;
67902;SDS011;54708;43.612;1.568;2022-11-15T17:02:34;11.25;;;7.35;;
67902;SDS011;54708;43.612;1.568;2022-11-15T17:05:00;12.38;;;7.47;;
67902;SDS011;54708;43.612;1.568;2022-11-15T17:07:25;12.05;;;6.53;;